SHMÚ vydal hydrologické výstrahy na   Povodeň Display warnings

METAR

Aeronautical MET Report METAR

METAR description (Slovak)

23.07.2018 - 00:00 UTC

METAR LZIB 230000Z 33007KT 270V080 9999 FEW011 BKN062 20/17 Q1011 WS
R31=
METAR LZKZ 230000Z VRB01KT CAVOK 18/17 Q1009=
METAR LZPP 230000Z AUTO 33007KT 9999 OVC110/// 19/17 Q1010=
METAR LZSL 230000Z VRB02KT 7000 -SHRA BKN050 OVC080 17/16 Q1011=
METAR LZTT 230000Z 24003KT 210V310 9999 SCT060 OVC090 15/14 Q1012=
METAR LZZI 230000Z 07002KT 8000 NSC 18/17 Q1011=

22.07.2018 - 23:30 UTC

METAR LZIB 222330Z 33009KT 9999 FEW011 BKN060 20/17 Q1010=
METAR LZKZ 222330Z VRB02KT CAVOK 18/17 Q1010=
METAR LZPP 222330Z AUTO 34007KT 9999 FEW065/// OVC110/// 19/17
Q1010=
METAR LZSL 222330Z 00000KT 9999 BKN060 OVC080 17/16 Q1011=
METAR LZTT 222330Z 29005KT 9999 SCT060 OVC090 15/14 Q1012=
METAR LZZI 222330Z VRB02KT 6000 -RA NSC 18/17 Q1012=

No data available

 

 

skok na menu ↑


skok na začiatok stránky ↑